createdAt,value
2022-07-29T00:00:24.431Z,19.92
2022-07-29T00:05:26.593Z,19.85
2022-07-29T00:10:28.748Z,19.80
2022-07-29T00:15:30.913Z,19.68
2022-07-29T00:20:33.259Z,19.51
2022-07-29T00:25:35.342Z,19.26
2022-07-29T00:30:37.566Z,19.01
2022-07-29T00:35:45.726Z,18.77
2022-07-29T00:40:48.629Z,18.61
2022-07-29T00:45:50.724Z,18.46
2022-07-29T00:50:52.993Z,18.28
2022-07-29T00:55:56.184Z,18.22
2022-07-29T01:00:59.418Z,18.10
2022-07-29T01:06:01.793Z,18.05
2022-07-29T01:11:04.209Z,17.94
2022-07-29T01:16:22.191Z,18.01
2022-07-29T01:21:50.482Z,18.00
2022-07-29T01:27:04.579Z,17.85
2022-07-29T01:32:28.456Z,17.75
2022-07-29T01:37:38.984Z,17.52
2022-07-29T01:42:45.816Z,17.56
2022-07-29T01:47:55.205Z,17.50
2022-07-29T01:53:03.384Z,17.48
2022-07-29T01:58:07.244Z,17.40
2022-07-29T02:03:12.182Z,17.43
2022-07-29T02:08:16.112Z,17.39
2022-07-29T02:13:21.701Z,17.43
2022-07-29T02:18:27.709Z,17.52
2022-07-29T02:23:32.231Z,17.58
2022-07-29T02:28:56.486Z,17.56
2022-07-29T02:33:59.532Z,17.67
2022-07-29T02:39:04.404Z,17.81
2022-07-29T02:44:15.577Z,17.90
2022-07-29T02:49:40.954Z,18.17
2022-07-29T02:54:50.529Z,18.18
2022-07-29T02:59:58.523Z,18.09
2022-07-29T03:05:02.938Z,18.23
2022-07-29T03:10:08.169Z,18.34
2022-07-29T03:15:16.351Z,18.39
2022-07-29T03:20:18.899Z,18.42
2022-07-29T03:25:21.351Z,18.52
2022-07-29T03:30:24.086Z,18.62
2022-07-29T03:35:26.169Z,18.66
2022-07-29T03:40:39.680Z,18.84
2022-07-29T03:45:45.534Z,18.85
2022-07-29T03:50:47.729Z,18.89
2022-07-29T03:55:55.854Z,19.10
2022-07-29T04:00:58.621Z,19.01
2022-07-29T04:06:03.488Z,19.19
2022-07-29T04:11:06.688Z,19.27
2022-07-29T04:16:09.144Z,19.30
2022-07-29T04:21:11.197Z,19.39
2022-07-29T04:26:13.216Z,19.43
2022-07-29T04:31:15.358Z,19.49
2022-07-29T04:36:28.795Z,19.63
2022-07-29T04:41:33.269Z,19.71
2022-07-29T04:46:36.655Z,19.80
2022-07-29T04:51:38.916Z,19.76
2022-07-29T04:56:40.992Z,19.74
2022-07-29T05:01:43.280Z,19.83
2022-07-29T05:06:45.568Z,19.92
2022-07-29T05:11:47.722Z,20.08
2022-07-29T05:16:52.054Z,20.20
2022-07-29T05:21:54.113Z,20.48
2022-07-29T05:26:56.149Z,20.77
2022-07-29T05:31:58.178Z,21.53
2022-07-29T05:37:00.253Z,22.82
2022-07-29T05:42:02.313Z,23.86
2022-07-29T05:47:04.457Z,24.79
2022-07-29T05:52:06.587Z,25.76
2022-07-29T05:57:08.824Z,26.30
2022-07-29T06:02:10.863Z,26.92
2022-07-29T06:07:13.109Z,27.88
2022-07-29T06:12:15.534Z,28.85
2022-07-29T06:17:17.934Z,29.72
2022-07-29T06:22:20.031Z,29.97
2022-07-29T06:27:22.087Z,30.92
2022-07-29T06:32:27.431Z,31.44
2022-07-29T06:37:29.693Z,31.48
2022-07-29T06:42:34.696Z,32.38
2022-07-29T06:47:36.716Z,32.81
2022-07-29T06:52:39.540Z,33.86
2022-07-29T06:57:42.161Z,34.71
2022-07-29T07:02:44.352Z,35.23
2022-07-29T07:07:46.647Z,35.71
2022-07-29T07:12:48.855Z,35.91
2022-07-29T07:17:51.029Z,37.23
2022-07-29T07:22:53.355Z,38.41
2022-07-29T07:27:55.695Z,38.04
2022-07-29T07:32:57.842Z,36.46
2022-07-29T07:38:00.584Z,34.11
2022-07-29T07:43:03.175Z,34.61
2022-07-29T07:48:05.990Z,37.22
2022-07-29T07:53:08.221Z,38.25
2022-07-29T07:58:11.044Z,38.94
2022-07-29T08:03:16.619Z,37.47
2022-07-29T08:08:19.676Z,34.96
2022-07-29T08:13:23.209Z,34.57
2022-07-29T08:18:26.071Z,37.01
2022-07-29T08:23:45.961Z,39.25
2022-07-29T08:28:51.960Z,39.32
2022-07-29T08:33:54.198Z,37.75
2022-07-29T08:38:56.401Z,36.46
2022-07-29T08:43:58.666Z,36.66
2022-07-29T08:49:00.941Z,37.82
2022-07-29T08:54:04.210Z,36.71
2022-07-29T08:59:08.689Z,37.75
2022-07-29T09:04:15.997Z,40.25
2022-07-29T09:09:18.609Z,41.04
2022-07-29T09:14:20.817Z,39.14
2022-07-29T09:19:26.095Z,36.85
2022-07-29T09:24:37.747Z,37.88
2022-07-29T09:29:40.694Z,36.84
2022-07-29T09:34:42.878Z,36.41
2022-07-29T09:39:47.995Z,38.88
2022-07-29T09:44:51.673Z,39.78
2022-07-29T09:50:00.856Z,37.87
2022-07-29T09:55:08.593Z,37.31
2022-07-29T10:00:12.628Z,36.11
2022-07-29T10:05:22.339Z,35.55
2022-07-29T10:10:25.785Z,34.16
2022-07-29T10:15:30.741Z,32.96
2022-07-29T10:20:33.663Z,31.73
2022-07-29T10:25:35.890Z,31.86
2022-07-29T10:30:41.075Z,33.01
2022-07-29T10:36:06.240Z,32.75
2022-07-29T10:41:32.297Z,34.86
2022-07-29T10:46:41.301Z,38.11
2022-07-29T10:52:06.047Z,40.91
2022-07-29T10:57:53.251Z,41.94
2022-07-29T11:02:56.251Z,39.55
2022-07-29T11:13:44.472Z,35.36
2022-07-29T11:24:50.286Z,33.28
2022-07-29T11:29:53.434Z,32.65
2022-07-29T11:35:37.865Z,32.34
2022-07-29T11:40:42.637Z,31.05
2022-07-29T11:45:48.270Z,30.37
2022-07-29T11:50:51.010Z,30.50
2022-07-29T11:55:58.401Z,33.50
2022-07-29T12:01:04.932Z,36.52
2022-07-29T12:06:17.343Z,39.31
2022-07-29T12:11:22.855Z,40.56
2022-07-29T12:16:36.636Z,41.54
2022-07-29T12:22:07.762Z,40.66
2022-07-29T12:27:09.847Z,40.14
2022-07-29T12:32:15.004Z,40.13
2022-07-29T12:37:40.760Z,39.05
2022-07-29T12:43:08.473Z,38.99
2022-07-29T12:48:10.731Z,36.76
2022-07-29T12:53:14.874Z,34.61
2022-07-29T12:58:34.008Z,33.03
2022-07-29T13:03:59.661Z,33.08
2022-07-29T13:09:20.175Z,34.42
2022-07-29T13:14:34.275Z,34.56
2022-07-29T13:19:44.431Z,34.60
2022-07-29T13:24:54.762Z,35.72
2022-07-29T13:29:59.377Z,36.10
2022-07-29T13:35:05.137Z,35.74
2022-07-29T13:40:09.600Z,33.92
2022-07-29T13:45:13.087Z,32.60
2022-07-29T13:50:15.128Z,30.91
2022-07-29T13:55:17.347Z,29.87
2022-07-29T14:00:20.202Z,29.70
2022-07-29T14:05:22.413Z,29.80
2022-07-29T14:10:24.523Z,29.79
2022-07-29T14:15:26.729Z,29.47
2022-07-29T14:20:30.901Z,29.01
2022-07-29T14:25:33.043Z,28.55
2022-07-29T14:30:35.382Z,28.23
2022-07-29T14:35:37.627Z,27.91
2022-07-29T14:40:39.847Z,27.87
2022-07-29T14:45:42.316Z,28.00
2022-07-29T14:50:44.536Z,28.13
2022-07-29T14:55:46.713Z,28.01
2022-07-29T15:00:48.812Z,27.57
2022-07-29T15:05:50.942Z,27.24
2022-07-29T15:10:53.356Z,27.05
2022-07-29T15:15:59.936Z,26.87
2022-07-29T15:21:03.343Z,26.85
2022-07-29T15:26:05.502Z,26.91
2022-07-29T15:31:07.599Z,26.89
2022-07-29T15:36:09.833Z,26.84
2022-07-29T15:41:15.382Z,26.79
2022-07-29T15:46:38.983Z,26.33
2022-07-29T15:51:41.249Z,25.69
2022-07-29T15:56:43.345Z,25.29
2022-07-29T16:01:45.636Z,25.13
2022-07-29T16:06:48.708Z,25.01
2022-07-29T16:11:54.170Z,24.73
2022-07-29T16:16:56.995Z,24.54
2022-07-29T16:22:00.000Z,24.37
2022-07-29T16:27:02.272Z,24.19
2022-07-29T16:32:05.946Z,24.01
2022-07-29T16:37:08.094Z,23.88
2022-07-29T16:42:21.286Z,23.77
2022-07-29T16:47:32.577Z,23.76
2022-07-29T16:52:34.854Z,23.74
2022-07-29T16:57:36.998Z,23.72
2022-07-29T17:02:39.296Z,23.69
2022-07-29T17:07:42.588Z,23.54
2022-07-29T17:12:45.119Z,23.46
2022-07-29T17:17:55.407Z,23.32
2022-07-29T17:22:59.018Z,23.21
2022-07-29T17:28:01.677Z,23.07
2022-07-29T17:33:03.946Z,22.89
2022-07-29T17:38:06.019Z,22.69
2022-07-29T17:43:09.464Z,22.46
2022-07-29T17:48:11.643Z,22.22
2022-07-29T17:53:16.202Z,22.09
2022-07-29T17:58:18.780Z,22.03
2022-07-29T18:03:21.083Z,21.98
2022-07-29T18:08:23.780Z,21.86
2022-07-29T18:13:28.551Z,21.71
2022-07-29T18:18:30.645Z,21.57
2022-07-29T18:23:33.510Z,21.42
2022-07-29T18:28:35.824Z,21.34
2022-07-29T18:33:39.551Z,21.33
2022-07-29T18:38:41.633Z,21.28
2022-07-29T18:43:45.513Z,21.17
2022-07-29T18:48:47.645Z,21.06
2022-07-29T18:53:49.828Z,20.92
2022-07-29T18:58:51.969Z,20.77
2022-07-29T19:03:54.056Z,20.64
2022-07-29T19:08:56.772Z,20.52
2022-07-29T19:13:58.901Z,20.40
2022-07-29T19:19:01.162Z,20.33
2022-07-29T19:24:07.483Z,20.29
2022-07-29T19:29:10.581Z,20.20
2022-07-29T19:34:12.919Z,20.12
2022-07-29T19:39:15.558Z,20.14
2022-07-29T19:44:17.688Z,20.08
2022-07-29T19:49:19.766Z,20.01
2022-07-29T19:54:21.907Z,19.93
2022-07-29T19:59:25.374Z,19.89
2022-07-29T20:04:31.689Z,19.84
2022-07-29T20:09:34.788Z,19.83
2022-07-29T20:14:38.202Z,19.76
2022-07-29T20:19:40.299Z,19.56
2022-07-29T20:24:42.338Z,19.61
2022-07-29T20:29:46.689Z,19.52
2022-07-29T20:34:48.764Z,19.47
2022-07-29T20:39:50.859Z,19.43
2022-07-29T20:44:54.010Z,19.36
2022-07-29T20:49:56.107Z,19.29
2022-07-29T20:54:58.203Z,19.21
2022-07-29T21:00:00.595Z,19.14
2022-07-29T21:05:02.746Z,19.09
2022-07-29T21:10:05.470Z,19.04
2022-07-29T21:15:08.624Z,19.02
2022-07-29T21:20:11.286Z,18.97
2022-07-29T21:25:13.477Z,18.87
2022-07-29T21:30:15.620Z,18.79
2022-07-29T21:36:02.136Z,18.70
2022-07-29T21:40:39.991Z,18.65
2022-07-29T21:45:42.875Z,18.58
2022-07-29T21:50:46.127Z,18.50
2022-07-29T21:55:50.688Z,18.45
2022-07-29T22:00:54.061Z,18.38
2022-07-29T22:05:56.365Z,18.28
2022-07-29T22:10:58.409Z,18.21
2022-07-29T22:16:00.261Z,18.59
2022-07-29T22:21:02.310Z,18.06
2022-07-29T22:26:05.069Z,17.83
2022-07-29T22:31:07.267Z,17.85
2022-07-29T22:36:09.479Z,17.79
2022-07-29T22:41:12.706Z,17.72
2022-07-29T22:46:17.811Z,17.65
2022-07-29T22:51:19.867Z,17.62
2022-07-29T22:56:21.916Z,18.02
2022-07-29T23:01:37.489Z,17.56
2022-07-29T23:06:40.395Z,17.45
2022-07-29T23:11:42.450Z,17.38
2022-07-29T23:16:44.449Z,17.80
2022-07-29T23:21:46.518Z,17.34
2022-07-29T23:26:48.399Z,17.69
2022-07-29T23:31:50.462Z,17.19
2022-07-29T23:36:52.317Z,17.51
2022-07-29T23:41:54.334Z,17.06
2022-07-29T23:46:56.473Z,17.40
2022-07-29T23:51:58.678Z,16.94
2022-07-29T23:57:01.327Z,16.84
